createdAt,value
2022-10-20T00:00:11.594Z,12.44
2022-10-20T00:01:11.586Z,12.46
2022-10-20T00:02:12.805Z,12.41
2022-10-20T00:03:11.600Z,12.38
2022-10-20T00:04:11.589Z,12.38
2022-10-20T00:05:11.542Z,12.33
2022-10-20T00:06:11.559Z,12.30
2022-10-20T00:07:11.700Z,12.29
2022-10-20T00:08:11.488Z,12.23
2022-10-20T00:09:11.699Z,12.21
2022-10-20T00:10:11.519Z,12.21
2022-10-20T00:11:11.481Z,12.17
2022-10-20T00:12:11.622Z,12.18
2022-10-20T00:13:11.746Z,12.23
2022-10-20T00:14:11.508Z,12.28
2022-10-20T00:15:11.399Z,12.28
2022-10-20T00:16:11.606Z,12.28
2022-10-20T00:17:11.462Z,12.30
2022-10-20T00:18:11.566Z,12.26
2022-10-20T00:19:11.648Z,12.25
2022-10-20T00:20:11.321Z,12.23
2022-10-20T00:21:11.416Z,12.21
2022-10-20T00:22:11.473Z,12.17
2022-10-20T00:23:11.447Z,12.17
2022-10-20T00:24:11.763Z,12.13
2022-10-20T00:25:11.882Z,12.11
2022-10-20T00:26:11.372Z,12.11
2022-10-20T00:27:11.452Z,12.10
2022-10-20T00:28:11.519Z,12.07
2022-10-20T00:29:11.364Z,12.04
2022-10-20T00:30:11.319Z,12.05
2022-10-20T00:31:11.500Z,12.11
2022-10-20T00:32:11.253Z,12.11
2022-10-20T00:33:11.290Z,12.11
2022-10-20T00:34:11.237Z,12.11
2022-10-20T00:35:11.174Z,12.07
2022-10-20T00:36:11.178Z,12.04
2022-10-20T00:37:11.191Z,12.04
2022-10-20T00:38:11.417Z,11.95
2022-10-20T00:39:11.273Z,11.91
2022-10-20T00:40:11.307Z,11.93
2022-10-20T00:41:11.208Z,11.95
2022-10-20T00:42:11.212Z,11.93
2022-10-20T00:43:11.123Z,11.88
2022-10-20T00:44:11.136Z,11.91
2022-10-20T00:45:11.128Z,11.95
2022-10-20T00:46:11.249Z,11.89
2022-10-20T00:47:11.104Z,11.95
2022-10-20T00:48:11.059Z,11.93
2022-10-20T00:49:11.182Z,11.88
2022-10-20T00:50:11.188Z,11.89
2022-10-20T00:51:11.063Z,11.84
2022-10-20T00:52:11.203Z,11.84
2022-10-20T00:53:11.008Z,11.82
2022-10-20T00:54:11.024Z,11.80
2022-10-20T00:55:11.060Z,11.80
2022-10-20T00:56:11.367Z,11.80
2022-10-20T00:57:11.011Z,11.79
2022-10-20T00:58:11.159Z,11.79
2022-10-20T00:59:10.967Z,11.76
2022-10-20T01:00:10.971Z,11.79
2022-10-20T01:01:11.185Z,11.74
2022-10-20T01:02:10.972Z,11.73
2022-10-20T01:03:10.988Z,11.69
2022-10-20T01:04:11.161Z,11.73
2022-10-20T01:05:10.910Z,11.71
2022-10-20T01:06:10.984Z,11.70
2022-10-20T01:07:10.926Z,11.70
2022-10-20T01:08:10.922Z,11.71
2022-10-20T01:09:10.999Z,11.71
2022-10-20T01:10:10.851Z,11.69
2022-10-20T01:11:10.904Z,11.66
2022-10-20T01:12:10.850Z,11.66
2022-10-20T01:13:10.862Z,11.66
2022-10-20T01:14:10.941Z,11.70
2022-10-20T01:15:11.064Z,11.64
2022-10-20T01:16:10.830Z,11.64
2022-10-20T01:17:10.885Z,11.62
2022-10-20T01:18:10.947Z,11.58
2022-10-20T01:19:10.763Z,11.58
2022-10-20T01:20:10.803Z,11.58
2022-10-20T01:21:10.791Z,11.58
2022-10-20T01:22:10.812Z,11.56
2022-10-20T01:23:10.762Z,11.54
2022-10-20T01:24:10.754Z,11.54
2022-10-20T01:25:10.736Z,11.52
2022-10-20T01:26:10.972Z,11.55
2022-10-20T01:27:10.692Z,11.55
2022-10-20T01:28:10.633Z,11.54
2022-10-20T01:29:10.848Z,11.55
2022-10-20T01:30:10.771Z,11.56
2022-10-20T01:31:10.677Z,11.56
2022-10-20T01:32:10.799Z,11.56
2022-10-20T01:33:10.594Z,11.59
2022-10-20T01:34:10.643Z,11.59
2022-10-20T01:35:10.595Z,11.61
2022-10-20T01:36:10.652Z,11.66
2022-10-20T01:37:10.708Z,11.66
2022-10-20T01:38:10.546Z,11.66
2022-10-20T01:39:10.605Z,11.66
2022-10-20T01:40:10.605Z,11.67
2022-10-20T01:41:10.716Z,11.69
2022-10-20T01:42:10.475Z,11.69
2022-10-20T01:43:10.815Z,11.67
2022-10-20T01:44:10.533Z,11.71
2022-10-20T01:45:10.732Z,11.69
2022-10-20T01:46:10.507Z,11.67
2022-10-20T01:47:10.464Z,11.66
2022-10-20T01:48:10.498Z,11.64
2022-10-20T01:49:10.408Z,11.62
2022-10-20T01:50:10.511Z,11.64
2022-10-20T01:51:10.432Z,11.61
2022-10-20T01:52:10.530Z,11.66
2022-10-20T01:53:10.593Z,11.66
2022-10-20T01:54:10.553Z,11.67
2022-10-20T01:55:10.518Z,11.70
2022-10-20T01:56:10.447Z,11.67
2022-10-20T01:57:10.410Z,11.67
2022-10-20T01:58:10.343Z,11.61
2022-10-20T01:59:10.380Z,11.59
2022-10-20T02:00:10.350Z,11.59
2022-10-20T02:01:10.404Z,11.62
2022-10-20T02:02:10.360Z,11.64
2022-10-20T02:03:12.365Z,11.62
2022-10-20T02:04:10.446Z,11.64
2022-10-20T02:05:10.400Z,11.62
2022-10-20T02:06:10.357Z,11.59
2022-10-20T02:07:10.297Z,11.58
2022-10-20T02:08:10.381Z,11.58
2022-10-20T02:09:10.324Z,11.58
2022-10-20T02:10:10.266Z,11.59
2022-10-20T02:11:10.256Z,11.61
2022-10-20T02:12:10.229Z,11.59
2022-10-20T02:13:10.345Z,11.59
2022-10-20T02:14:10.446Z,11.58
2022-10-20T02:15:10.135Z,11.58
2022-10-20T02:16:10.213Z,11.59
2022-10-20T02:17:10.203Z,11.55
2022-10-20T02:18:10.229Z,11.55
2022-10-20T02:19:10.152Z,11.58
2022-10-20T02:20:10.233Z,11.58
2022-10-20T02:21:10.100Z,11.58
2022-10-20T02:22:10.160Z,11.54
2022-10-20T02:23:10.263Z,11.56
2022-10-20T02:24:10.070Z,11.55
2022-10-20T02:25:10.060Z,11.52
2022-10-20T02:26:10.213Z,11.49
2022-10-20T02:27:10.138Z,11.51
2022-10-20T02:28:10.088Z,11.49
2022-10-20T02:29:10.145Z,11.49
2022-10-20T02:30:10.100Z,11.48
2022-10-20T02:31:10.014Z,11.48
2022-10-20T02:32:10.005Z,11.48
2022-10-20T02:33:09.978Z,11.45
2022-10-20T02:34:09.915Z,11.45
2022-10-20T02:35:10.112Z,11.40
2022-10-20T02:36:10.021Z,11.41
2022-10-20T02:37:10.138Z,11.40
2022-10-20T02:38:10.031Z,11.40
2022-10-20T02:39:10.047Z,11.41
2022-10-20T02:40:09.946Z,11.43
2022-10-20T02:41:09.889Z,11.38
2022-10-20T02:42:09.943Z,11.40
2022-10-20T02:43:09.919Z,11.38
2022-10-20T02:44:09.941Z,11.40
2022-10-20T02:45:09.997Z,11.40
2022-10-20T02:46:09.927Z,11.38
2022-10-20T02:47:09.885Z,11.38
2022-10-20T02:48:09.853Z,11.38
2022-10-20T02:49:09.862Z,11.36
2022-10-20T02:50:09.898Z,11.38
2022-10-20T02:51:09.802Z,11.37
2022-10-20T02:52:09.766Z,11.37
2022-10-20T02:53:09.827Z,11.30
2022-10-20T02:54:09.864Z,11.34
2022-10-20T02:55:09.856Z,11.31
2022-10-20T02:56:09.803Z,11.31
2022-10-20T02:57:09.751Z,11.30
2022-10-20T02:58:09.769Z,11.30
2022-10-20T02:59:09.725Z,11.28
2022-10-20T03:00:09.897Z,11.28
2022-10-20T03:01:09.933Z,11.31
2022-10-20T03:02:09.740Z,11.33
2022-10-20T03:03:09.725Z,11.30
2022-10-20T03:04:09.816Z,11.31
2022-10-20T03:05:09.827Z,11.27
2022-10-20T03:06:09.749Z,11.31
2022-10-20T03:07:09.665Z,11.28
2022-10-20T03:08:09.619Z,11.30
2022-10-20T03:09:09.674Z,11.30
2022-10-20T03:10:09.653Z,11.28
2022-10-20T03:11:09.623Z,11.31
2022-10-20T03:12:09.670Z,11.28
2022-10-20T03:13:09.915Z,11.31
2022-10-20T03:14:09.780Z,11.28
2022-10-20T03:15:09.687Z,11.28
2022-10-20T03:16:09.760Z,11.28
2022-10-20T03:17:09.728Z,11.28
2022-10-20T03:18:09.720Z,11.30
2022-10-20T03:19:11.745Z,11.28
2022-10-20T03:20:09.589Z,11.30
2022-10-20T03:21:09.771Z,11.30
2022-10-20T03:22:09.593Z,11.30
2022-10-20T03:23:09.768Z,11.28
2022-10-20T03:24:09.448Z,11.30
2022-10-20T03:25:09.580Z,11.25
2022-10-20T03:26:10.968Z,11.27
2022-10-20T03:27:09.596Z,11.20
2022-10-20T03:28:09.659Z,11.23
2022-10-20T03:29:09.501Z,11.20
2022-10-20T03:30:09.562Z,11.22
2022-10-20T03:31:09.438Z,11.16
2022-10-20T03:32:09.421Z,11.19
2022-10-20T03:33:09.632Z,11.19
2022-10-20T03:34:09.405Z,11.16
2022-10-20T03:35:09.376Z,11.18
2022-10-20T03:36:09.461Z,11.16
2022-10-20T03:37:09.482Z,11.16
2022-10-20T03:38:09.551Z,11.12
2022-10-20T03:39:09.359Z,11.09
2022-10-20T03:40:09.358Z,11.11
2022-10-20T03:41:09.326Z,11.11
2022-10-20T03:42:09.279Z,11.15
2022-10-20T03:43:17.095Z,11.16
2022-10-20T03:44:09.342Z,11.16
2022-10-20T03:45:09.229Z,11.19
2022-10-20T03:46:09.539Z,11.22
2022-10-20T03:47:09.324Z,11.25
2022-10-20T03:48:09.390Z,11.30
2022-10-20T03:49:09.350Z,11.23
2022-10-20T03:50:09.243Z,11.27
2022-10-20T03:51:09.309Z,11.19
2022-10-20T03:52:09.208Z,11.15
2022-10-20T03:53:09.216Z,11.11
2022-10-20T03:54:09.390Z,11.11
2022-10-20T03:55:09.301Z,11.08
2022-10-20T03:56:09.378Z,11.05
2022-10-20T03:57:09.507Z,11.09
2022-10-20T03:58:09.109Z,11.11
2022-10-20T03:59:09.205Z,11.04
2022-10-20T04:00:09.381Z,11.03
2022-10-20T04:01:09.199Z,11.04
2022-10-20T04:02:09.597Z,10.97
2022-10-20T04:03:09.209Z,10.98
2022-10-20T04:04:10.902Z,11.01
2022-10-20T04:05:09.361Z,11.05
2022-10-20T04:06:09.524Z,11.09
2022-10-20T04:07:09.029Z,11.08
2022-10-20T04:08:09.319Z,11.09
2022-10-20T04:09:12.440Z,11.08
2022-10-20T04:10:09.790Z,11.04
2022-10-20T04:11:09.814Z,11.03
2022-10-20T04:12:09.191Z,11.00
2022-10-20T04:13:09.433Z,10.98
2022-10-20T04:14:09.167Z,11.01
2022-10-20T04:15:09.283Z,11.04
2022-10-20T04:16:09.223Z,11.12
2022-10-20T04:17:09.344Z,11.13
2022-10-20T04:18:09.191Z,11.16
2022-10-20T04:19:09.423Z,11.09
2022-10-20T04:20:09.162Z,11.09
2022-10-20T04:21:08.945Z,11.09
2022-10-20T04:22:10.186Z,11.13
2022-10-20T04:23:09.131Z,11.18
2022-10-20T04:24:08.882Z,11.16
2022-10-20T04:25:09.065Z,11.13
2022-10-20T04:26:09.263Z,11.15
2022-10-20T04:27:09.069Z,11.13
2022-10-20T04:28:09.037Z,11.11
2022-10-20T04:29:09.202Z,11.05
2022-10-20T04:30:09.114Z,11.04
2022-10-20T04:31:08.992Z,11.04
2022-10-20T04:32:09.179Z,11.00
2022-10-20T04:33:09.352Z,11.00
2022-10-20T04:34:08.928Z,10.97
2022-10-20T04:35:08.861Z,11.01
2022-10-20T04:36:08.897Z,11.00
2022-10-20T04:37:08.916Z,11.08
2022-10-20T04:38:08.783Z,11.08
2022-10-20T04:39:08.844Z,11.04
2022-10-20T04:40:08.827Z,11.04
2022-10-20T04:41:08.999Z,10.98
2022-10-20T04:42:08.988Z,10.97
2022-10-20T04:43:08.825Z,10.95
2022-10-20T04:44:08.811Z,10.97
2022-10-20T04:45:08.729Z,10.95
2022-10-20T04:46:09.187Z,10.97
2022-10-20T04:47:08.903Z,10.98
2022-10-20T04:48:08.763Z,11.00
2022-10-20T04:49:08.642Z,10.97
2022-10-20T04:50:08.854Z,10.95
2022-10-20T04:51:09.024Z,11.00
2022-10-20T04:52:08.705Z,10.97
2022-10-20T04:53:08.646Z,11.01
2022-10-20T04:54:09.152Z,11.09
2022-10-20T04:55:09.028Z,11.09
2022-10-20T04:56:08.653Z,11.11
2022-10-20T04:57:08.797Z,11.09
2022-10-20T04:58:08.526Z,11.09
2022-10-20T04:59:11.140Z,11.01
2022-10-20T05:00:09.226Z,11.00
2022-10-20T05:01:09.425Z,10.98
2022-10-20T05:02:08.769Z,11.05
2022-10-20T05:04:08.651Z,11.15
2022-10-20T05:05:09.169Z,11.23
2022-10-20T05:06:09.252Z,11.25
2022-10-20T05:07:08.977Z,11.28
2022-10-20T05:08:08.520Z,11.30
2022-10-20T05:09:09.944Z,11.28
2022-10-20T05:10:08.717Z,11.34
2022-10-20T05:11:09.213Z,11.38
2022-10-20T05:12:09.550Z,11.40
2022-10-20T05:13:08.640Z,11.49
2022-10-20T05:14:08.642Z,11.48
2022-10-20T05:15:08.797Z,11.46
2022-10-20T05:16:08.519Z,11.41
2022-10-20T05:17:10.042Z,11.36
2022-10-20T05:18:10.088Z,11.33
2022-10-20T05:19:09.179Z,11.34
2022-10-20T05:20:08.397Z,11.34
2022-10-20T05:21:09.690Z,11.38
2022-10-20T05:22:09.281Z,11.37
2022-10-20T05:23:08.650Z,11.33
2022-10-20T05:24:08.501Z,11.34
2022-10-20T05:25:31.475Z,11.30
2022-10-20T05:26:08.606Z,11.27
2022-10-20T05:27:10.834Z,11.19
2022-10-20T05:28:07.879Z,11.09
2022-10-20T05:29:09.286Z,11.03
2022-10-20T05:30:08.942Z,11.00
2022-10-20T05:31:08.153Z,10.98
2022-10-20T05:32:10.492Z,10.94
2022-10-20T05:33:11.079Z,10.95
2022-10-20T05:34:08.534Z,10.97
2022-10-20T05:35:08.629Z,10.94
2022-10-20T05:36:08.498Z,10.94
2022-10-20T05:37:08.401Z,10.97
2022-10-20T05:38:08.233Z,11.03
2022-10-20T05:39:08.528Z,11.03
2022-10-20T05:40:08.102Z,11.08
2022-10-20T05:41:08.340Z,11.09
2022-10-20T05:42:08.109Z,11.04
2022-10-20T05:43:08.056Z,11.05
2022-10-20T05:44:08.004Z,11.04
2022-10-20T05:45:08.119Z,11.08
2022-10-20T05:46:08.123Z,11.09
2022-10-20T05:47:07.966Z,11.11
2022-10-20T05:48:08.032Z,11.12
2022-10-20T05:49:08.040Z,11.09
2022-10-20T05:50:08.241Z,11.04
2022-10-20T05:51:10.690Z,11.00
2022-10-20T05:52:08.009Z,10.98
2022-10-20T05:53:08.243Z,10.93
2022-10-20T05:54:08.306Z,10.91
2022-10-20T05:55:07.968Z,10.86
2022-10-20T05:56:07.944Z,10.86
2022-10-20T05:57:08.275Z,10.86
2022-10-20T05:58:07.904Z,10.86
2022-10-20T05:59:07.904Z,10.93
2022-10-20T06:00:07.737Z,10.98
2022-10-20T06:01:07.773Z,11.05
2022-10-20T06:02:07.782Z,11.16
2022-10-20T06:03:07.698Z,11.20
2022-10-20T06:04:07.710Z,11.23
2022-10-20T06:05:07.675Z,11.22
2022-10-20T06:06:07.693Z,11.22
2022-10-20T06:07:07.674Z,11.30
2022-10-20T06:08:07.701Z,11.36
2022-10-20T06:09:07.720Z,11.43
2022-10-20T06:10:07.666Z,11.41
2022-10-20T06:11:07.625Z,11.45
2022-10-20T06:13:07.688Z,11.52
2022-10-20T06:14:07.606Z,11.55
2022-10-20T06:15:07.601Z,11.58
2022-10-20T06:16:07.675Z,11.58
2022-10-20T06:17:07.556Z,11.59
2022-10-20T06:18:09.214Z,11.51
2022-10-20T06:19:07.593Z,11.46
2022-10-20T06:20:07.557Z,11.45
2022-10-20T06:21:07.556Z,11.37
2022-10-20T06:22:07.512Z,11.25
2022-10-20T06:23:08.354Z,11.23
2022-10-20T06:24:07.494Z,11.18
2022-10-20T06:25:07.523Z,11.20
2022-10-20T06:26:07.622Z,11.18
2022-10-20T06:27:07.450Z,11.19
2022-10-20T06:28:07.526Z,11.22
2022-10-20T06:29:07.440Z,11.31
2022-10-20T06:30:07.469Z,11.33
2022-10-20T06:31:07.447Z,11.38
2022-10-20T06:32:07.445Z,11.37
2022-10-20T06:33:07.441Z,11.41
2022-10-20T06:34:07.403Z,11.41
2022-10-20T06:35:07.377Z,11.43
2022-10-20T06:36:07.390Z,11.45
2022-10-20T06:37:07.347Z,11.46
2022-10-20T06:38:07.344Z,11.48
2022-10-20T06:39:07.367Z,11.48
2022-10-20T06:40:07.357Z,11.52
2022-10-20T06:41:07.341Z,11.49
2022-10-20T06:42:09.698Z,11.46
2022-10-20T06:43:07.306Z,11.46
2022-10-20T06:44:07.314Z,11.46
2022-10-20T06:45:07.290Z,11.51
2022-10-20T06:46:07.290Z,11.46
2022-10-20T06:47:07.268Z,11.46
2022-10-20T06:48:07.271Z,11.40
2022-10-20T06:49:07.250Z,11.41
2022-10-20T06:50:07.260Z,11.37
2022-10-20T06:51:07.228Z,11.40
2022-10-20T06:52:07.272Z,11.37
2022-10-20T06:53:07.274Z,11.38
2022-10-20T06:54:07.191Z,11.43
2022-10-20T06:55:07.614Z,11.46
2022-10-20T06:56:07.170Z,11.54
2022-10-20T06:57:07.178Z,11.56
2022-10-20T06:58:07.186Z,11.59
2022-10-20T06:59:07.226Z,11.58
2022-10-20T07:00:07.127Z,11.56
2022-10-20T07:01:10.160Z,11.59
2022-10-20T07:02:07.228Z,11.62
2022-10-20T07:03:07.122Z,11.76
2022-10-20T07:04:07.094Z,11.87
2022-10-20T07:05:07.086Z,12.00
2022-10-20T07:06:07.084Z,12.11
2022-10-20T07:07:07.069Z,12.11
2022-10-20T07:08:07.227Z,12.11
2022-10-20T07:09:07.183Z,12.05
2022-10-20T07:10:07.098Z,11.97
2022-10-20T07:11:07.091Z,11.91
2022-10-20T07:12:07.034Z,11.87
2022-10-20T07:13:07.024Z,11.82
2022-10-20T07:14:07.010Z,11.82
2022-10-20T07:15:07.037Z,11.82
2022-10-20T07:16:06.963Z,11.85
2022-10-20T07:17:06.981Z,11.95
2022-10-20T07:18:07.063Z,12.03
2022-10-20T07:19:07.240Z,12.11
2022-10-20T07:20:07.104Z,12.11
2022-10-20T07:21:07.212Z,12.17
2022-10-20T07:22:07.337Z,12.03
2022-10-20T07:23:06.923Z,11.91
2022-10-20T07:24:16.452Z,11.85
2022-10-20T07:25:07.009Z,11.79
2022-10-20T07:26:07.084Z,11.79
2022-10-20T07:27:07.231Z,11.73
2022-10-20T07:28:06.941Z,11.67
2022-10-20T07:29:07.001Z,11.61
2022-10-20T07:30:06.947Z,11.58
2022-10-20T07:31:06.848Z,11.54
2022-10-20T07:32:06.830Z,11.55
2022-10-20T07:33:06.863Z,11.52
2022-10-20T07:34:23.396Z,11.46
2022-10-20T07:35:06.847Z,11.49
2022-10-20T07:36:06.988Z,11.49
2022-10-20T07:37:06.867Z,11.46
2022-10-20T07:38:06.930Z,11.46
2022-10-20T07:39:06.824Z,11.51
2022-10-20T07:40:06.818Z,11.52
2022-10-20T07:41:06.771Z,11.59
2022-10-20T07:42:06.822Z,11.64
2022-10-20T07:43:06.835Z,11.69
2022-10-20T07:44:06.716Z,11.73
2022-10-20T07:45:07.138Z,11.71
2022-10-20T07:46:06.760Z,11.70
2022-10-20T07:47:09.366Z,11.67
2022-10-20T07:48:06.846Z,11.67
2022-10-20T07:49:23.961Z,11.71
2022-10-20T07:50:06.729Z,11.71
2022-10-20T07:51:06.717Z,11.64
2022-10-20T07:52:06.652Z,11.69
2022-10-20T07:53:06.658Z,11.71
2022-10-20T07:54:06.882Z,11.69
2022-10-20T07:55:17.714Z,11.66
2022-10-20T07:56:06.619Z,11.62
2022-10-20T07:57:22.691Z,11.61
2022-10-20T07:58:21.099Z,11.66
2022-10-20T07:59:06.725Z,11.64
2022-10-20T08:00:07.679Z,11.66
2022-10-20T08:01:06.555Z,11.64
2022-10-20T08:02:06.608Z,11.64
2022-10-20T08:03:06.525Z,11.61
2022-10-20T08:04:06.577Z,11.59
2022-10-20T08:05:06.677Z,11.62
2022-10-20T08:06:06.571Z,11.67
2022-10-20T08:07:06.468Z,11.73
2022-10-20T08:08:06.562Z,11.74
2022-10-20T08:09:06.589Z,11.84
2022-10-20T08:10:06.668Z,11.87
2022-10-20T08:11:06.471Z,11.87
2022-10-20T08:12:06.460Z,11.91
2022-10-20T08:13:06.438Z,11.93
2022-10-20T08:14:06.538Z,11.96
2022-10-20T08:15:06.455Z,11.99
2022-10-20T08:16:07.200Z,12.03
2022-10-20T08:17:06.474Z,12.07
2022-10-20T08:18:06.376Z,12.04
2022-10-20T08:19:08.682Z,12.00
2022-10-20T08:21:06.284Z,11.99
2022-10-20T08:21:11.450Z,11.99
2022-10-20T08:22:12.159Z,12.00
2022-10-20T08:23:11.407Z,11.99
2022-10-20T08:24:11.570Z,12.05
2022-10-20T08:25:13.162Z,12.00
2022-10-20T08:26:11.655Z,12.00
2022-10-20T08:27:12.420Z,11.95
2022-10-20T08:28:11.664Z,11.97
2022-10-20T08:29:12.363Z,11.96
2022-10-20T08:30:26.139Z,11.97
2022-10-20T08:31:11.312Z,12.05
2022-10-20T08:32:11.329Z,12.04
2022-10-20T08:33:11.214Z,12.07
2022-10-20T08:34:11.289Z,12.08
2022-10-20T08:35:11.339Z,12.11
2022-10-20T08:36:11.159Z,12.11
2022-10-20T08:37:11.213Z,12.10
2022-10-20T08:38:11.142Z,12.11
2022-10-20T08:39:11.133Z,12.13
2022-10-20T08:40:12.187Z,12.17
2022-10-20T08:41:11.181Z,12.17
2022-10-20T08:42:11.140Z,12.23
2022-10-20T08:43:11.112Z,12.29
2022-10-20T08:44:11.124Z,12.35
2022-10-20T08:45:11.149Z,12.33
2022-10-20T08:46:11.129Z,12.30
2022-10-20T08:47:11.200Z,12.29
2022-10-20T08:48:11.086Z,12.35
2022-10-20T08:49:11.045Z,12.43
2022-10-20T08:50:11.974Z,12.51
2022-10-20T08:51:11.008Z,12.62
2022-10-20T08:52:11.313Z,12.66
2022-10-20T08:53:11.133Z,12.80
2022-10-20T08:54:11.016Z,12.87
2022-10-20T08:55:11.020Z,12.90
2022-10-20T08:56:10.967Z,12.91
2022-10-20T08:57:10.979Z,12.91
2022-10-20T08:58:10.964Z,12.80
2022-10-20T08:59:10.960Z,12.68
2022-10-20T09:00:10.951Z,12.66
2022-10-20T09:01:10.932Z,12.62
2022-10-20T09:02:10.911Z,12.66
2022-10-20T09:03:10.912Z,12.66
2022-10-20T09:04:11.943Z,12.72
2022-10-20T09:05:12.936Z,12.77
2022-10-20T09:06:10.853Z,12.79
2022-10-20T09:07:10.859Z,12.77
2022-10-20T09:08:10.838Z,12.71
2022-10-20T09:09:10.879Z,12.68
2022-10-20T09:10:11.640Z,12.65
2022-10-20T09:11:10.880Z,12.63
2022-10-20T09:12:10.808Z,12.62
2022-10-20T09:13:10.828Z,12.63
2022-10-20T09:14:10.802Z,12.62
2022-10-20T09:15:10.765Z,12.61
2022-10-20T09:16:18.269Z,12.65
2022-10-20T09:17:11.562Z,12.63
2022-10-20T09:18:10.753Z,12.65
2022-10-20T09:19:19.376Z,12.63
2022-10-20T09:20:10.795Z,12.69
2022-10-20T09:21:10.721Z,12.77
2022-10-20T09:22:10.683Z,12.87
2022-10-20T09:23:28.262Z,12.93
2022-10-20T09:24:10.668Z,12.96
2022-10-20T09:25:10.681Z,12.98
2022-10-20T09:26:19.632Z,13.02
2022-10-20T09:27:11.082Z,13.09
2022-10-20T09:28:10.678Z,13.11
2022-10-20T09:29:14.642Z,13.11
2022-10-20T09:30:15.573Z,13.11
2022-10-20T09:31:10.634Z,13.11
2022-10-20T09:32:41.279Z,13.11
2022-10-20T09:33:10.742Z,13.14
2022-10-20T09:34:10.881Z,13.14
2022-10-20T09:35:10.666Z,13.11
2022-10-20T09:36:10.551Z,13.17
2022-10-20T09:37:10.560Z,13.23
2022-10-20T09:38:15.500Z,13.21
2022-10-20T09:39:10.603Z,13.24
2022-10-20T09:40:10.534Z,13.26
2022-10-20T09:41:10.532Z,13.26
2022-10-20T09:42:10.489Z,13.26
2022-10-20T09:43:10.467Z,13.21
2022-10-20T09:44:10.486Z,13.21
2022-10-20T09:45:10.477Z,13.19
2022-10-20T09:46:10.577Z,13.17
2022-10-20T09:47:10.446Z,13.13
2022-10-20T09:48:11.075Z,13.11
2022-10-20T09:49:10.428Z,13.06
2022-10-20T09:50:10.421Z,13.06
2022-10-20T09:51:10.449Z,13.09
2022-10-20T09:52:10.384Z,13.11
2022-10-20T09:53:10.374Z,13.16
2022-10-20T09:54:10.358Z,13.17
2022-10-20T09:55:10.442Z,13.23
2022-10-20T09:56:11.227Z,13.24
2022-10-20T09:57:10.457Z,13.27
2022-10-20T09:58:12.831Z,13.32
2022-10-20T09:59:10.345Z,13.32
2022-10-20T10:00:32.231Z,13.32
2022-10-20T10:01:10.445Z,13.38
2022-10-20T10:02:11.105Z,13.38
2022-10-20T10:03:10.306Z,13.38
2022-10-20T10:04:11.074Z,13.36
2022-10-20T10:05:10.290Z,13.38
2022-10-20T10:06:10.293Z,13.39
2022-10-20T10:07:10.237Z,13.39
2022-10-20T10:08:10.212Z,13.40
2022-10-20T10:09:10.450Z,13.43
2022-10-20T10:10:10.194Z,13.43
2022-10-20T10:11:10.323Z,13.51
2022-10-20T10:12:10.221Z,13.55
2022-10-20T10:13:10.225Z,13.60
2022-10-20T10:14:10.199Z,13.71
2022-10-20T10:15:10.181Z,13.73
2022-10-20T10:16:11.175Z,13.76
2022-10-20T10:17:10.184Z,13.78
2022-10-20T10:18:10.140Z,13.80
2022-10-20T10:19:10.176Z,13.75
2022-10-20T10:20:10.172Z,13.75
2022-10-20T10:21:10.156Z,13.73
2022-10-20T10:22:10.093Z,13.76
2022-10-20T10:23:10.163Z,13.76
2022-10-20T10:24:10.082Z,13.79
2022-10-20T10:25:10.765Z,13.75
2022-10-20T10:26:10.271Z,13.78
2022-10-20T10:27:10.068Z,13.79
2022-10-20T10:28:10.674Z,13.78
2022-10-20T10:29:10.745Z,13.82
2022-10-20T10:30:10.124Z,13.85
2022-10-20T10:31:10.019Z,13.85
2022-10-20T10:32:10.016Z,13.85
2022-10-20T10:33:10.096Z,13.88
2022-10-20T10:34:12.877Z,13.90
2022-10-20T10:35:10.014Z,13.96
2022-10-20T10:36:09.956Z,13.94
2022-10-20T10:37:09.970Z,13.96
2022-10-20T10:38:09.943Z,13.97
2022-10-20T10:39:10.017Z,14.01
2022-10-20T10:40:09.930Z,14.01
2022-10-20T10:41:10.264Z,13.98
2022-10-20T10:42:10.065Z,13.98
2022-10-20T10:43:09.865Z,14.01
2022-10-20T10:44:09.991Z,14.01
2022-10-20T10:45:09.877Z,14.08
2022-10-20T10:46:09.904Z,14.11
2022-10-20T10:47:09.952Z,14.13
2022-10-20T10:48:09.823Z,14.16
2022-10-20T10:49:09.799Z,14.22
2022-10-20T10:50:09.835Z,14.23
2022-10-20T10:51:09.882Z,14.31
2022-10-20T10:52:09.959Z,14.30
2022-10-20T10:53:09.854Z,14.34
2022-10-20T10:54:11.857Z,14.27
2022-10-20T10:55:11.723Z,14.31
2022-10-20T10:57:12.737Z,14.34
2022-10-20T10:58:10.128Z,14.38
2022-10-20T10:59:09.729Z,14.34
2022-10-20T11:00:09.710Z,14.37
2022-10-20T11:01:09.794Z,14.41
2022-10-20T11:02:09.697Z,14.41
2022-10-20T11:03:09.704Z,14.44
2022-10-20T11:04:09.664Z,14.46
2022-10-20T11:05:09.703Z,14.48
2022-10-20T11:06:09.688Z,14.51
2022-10-20T11:07:09.670Z,14.51
2022-10-20T11:08:09.781Z,14.53
2022-10-20T11:09:09.651Z,14.55
2022-10-20T11:10:09.617Z,14.55
2022-10-20T11:11:09.619Z,14.58
2022-10-20T11:12:09.608Z,14.58
2022-10-20T11:13:09.599Z,14.56
2022-10-20T11:14:09.654Z,14.59
2022-10-20T11:15:09.651Z,14.61
2022-10-20T11:16:09.628Z,14.63
2022-10-20T11:17:11.276Z,14.53
2022-10-20T11:18:09.545Z,14.49
2022-10-20T11:19:09.552Z,14.48
2022-10-20T11:20:09.560Z,14.36
2022-10-20T11:21:09.517Z,14.30
2022-10-20T11:22:11.874Z,14.33
2022-10-20T11:23:09.520Z,14.30
2022-10-20T11:24:09.452Z,14.31
2022-10-20T11:25:09.772Z,14.36
2022-10-20T11:26:09.429Z,14.33
2022-10-20T11:27:09.446Z,14.36
2022-10-20T11:28:09.409Z,14.40
2022-10-20T11:29:09.400Z,14.38
2022-10-20T11:30:09.396Z,14.40
2022-10-20T11:31:09.387Z,14.34
2022-10-20T11:32:09.392Z,14.33
2022-10-20T11:33:09.388Z,14.27
2022-10-20T11:34:09.386Z,14.22
2022-10-20T11:35:11.102Z,14.21
2022-10-20T11:36:09.391Z,14.21
2022-10-20T11:37:09.356Z,14.16
2022-10-20T11:38:09.341Z,14.19
2022-10-20T11:39:09.341Z,14.22
2022-10-20T11:40:09.303Z,14.21
2022-10-20T11:41:09.325Z,14.23
2022-10-20T11:42:09.312Z,14.23
2022-10-20T11:43:11.083Z,14.22
2022-10-20T11:44:09.298Z,14.21
2022-10-20T11:45:09.369Z,14.16
2022-10-20T11:46:09.249Z,14.16
2022-10-20T11:47:09.330Z,14.13
2022-10-20T11:48:09.273Z,14.15
2022-10-20T11:49:09.543Z,14.16
2022-10-20T11:50:09.289Z,14.12
2022-10-20T11:51:09.283Z,14.13
2022-10-20T11:52:09.253Z,14.15
2022-10-20T11:53:09.158Z,14.16
2022-10-20T11:54:09.242Z,14.19
2022-10-20T11:55:09.232Z,14.22
2022-10-20T11:56:09.198Z,14.23
2022-10-20T11:57:09.231Z,14.26
2022-10-20T11:58:09.167Z,14.28
2022-10-20T11:59:09.116Z,14.26
2022-10-20T12:00:11.315Z,14.26
2022-10-20T12:01:09.145Z,14.30
2022-10-20T12:02:09.185Z,14.26
2022-10-20T12:03:09.080Z,14.27
2022-10-20T12:05:09.486Z,14.27
2022-10-20T12:05:14.656Z,14.23
2022-10-20T12:06:14.608Z,14.23
2022-10-20T12:07:15.009Z,14.26
2022-10-20T12:08:29.490Z,14.27
2022-10-20T12:09:14.783Z,14.30
2022-10-20T12:10:14.504Z,14.31
2022-10-20T12:11:14.789Z,14.30
2022-10-20T12:12:14.506Z,14.30
2022-10-20T12:13:14.407Z,14.31
2022-10-20T12:14:14.455Z,14.30
2022-10-20T12:15:18.880Z,14.28
2022-10-20T12:16:14.481Z,14.26
2022-10-20T12:17:14.483Z,14.30
2022-10-20T12:18:14.360Z,14.28
2022-10-20T12:19:14.519Z,14.27
2022-10-20T12:20:15.730Z,14.28
2022-10-20T12:21:14.365Z,14.30
2022-10-20T12:22:17.181Z,14.30
2022-10-20T12:23:14.318Z,14.30
2022-10-20T12:24:14.356Z,14.28
2022-10-20T12:25:14.297Z,14.28
2022-10-20T12:26:14.251Z,14.30
2022-10-20T12:27:14.343Z,14.28
2022-10-20T12:28:14.245Z,14.27
2022-10-20T12:29:14.213Z,14.28
2022-10-20T12:30:14.281Z,14.28
2022-10-20T12:31:14.226Z,14.31
2022-10-20T12:32:14.210Z,14.28
2022-10-20T12:33:14.309Z,14.31
2022-10-20T12:34:14.198Z,14.36
2022-10-20T12:35:14.215Z,14.36
2022-10-20T12:36:14.149Z,14.36
2022-10-20T12:37:14.157Z,14.33
2022-10-20T12:38:14.176Z,14.34
2022-10-20T12:39:14.167Z,14.30
2022-10-20T12:40:14.149Z,14.30
2022-10-20T12:41:14.118Z,14.26
2022-10-20T12:42:14.127Z,14.23
2022-10-20T12:43:15.630Z,14.26
2022-10-20T12:44:14.352Z,14.23
2022-10-20T12:45:14.102Z,14.23
2022-10-20T12:46:14.172Z,14.23
2022-10-20T12:47:14.042Z,14.27
2022-10-20T12:48:14.089Z,14.28
2022-10-20T12:49:14.021Z,14.33
2022-10-20T12:50:14.078Z,14.33
2022-10-20T12:51:14.044Z,14.36
2022-10-20T12:52:14.301Z,14.41
2022-10-20T12:53:13.982Z,14.44
2022-10-20T12:54:13.984Z,14.40
2022-10-20T12:55:13.990Z,14.41